sensor_id;sensor_type;location;lat;lon;timestamp;pressure;altitude;pressure_sealevel;temperature;humidity
15444;BME280;7822;48.146;11.576;2023-01-31T00:00:04;95749.03;;;14.11;58.87
15444;BME280;7822;48.146;11.576;2023-01-31T00:02:33;95747.28;;;14.11;58.94
15444;BME280;7822;48.146;11.576;2023-01-31T00:05:00;95738.59;;;14.11;58.69
15444;BME280;7822;48.146;11.576;2023-01-31T00:07:28;95752.50;;;14.11;59.03
15444;BME280;7822;48.146;11.576;2023-01-31T00:09:56;95748.09;;;14.12;58.55
15444;BME280;7822;48.146;11.576;2023-01-31T00:12:24;95753.31;;;14.12;58.86
15444;BME280;7822;48.146;11.576;2023-01-31T00:14:53;95751.50;;;14.12;59.02
15444;BME280;7822;48.146;11.576;2023-01-31T00:17:20;95744.66;;;14.11;58.82
15444;BME280;7822;48.146;11.576;2023-01-31T00:19:48;95736.00;;;14.11;58.75
15444;BME280;7822;48.146;11.576;2023-01-31T00:22:16;95736.84;;;14.11;58.79
15444;BME280;7822;48.146;11.576;2023-01-31T00:24:43;95735.06;;;14.12;58.89
15444;BME280;7822;48.146;11.576;2023-01-31T00:27:11;95741.06;;;14.12;58.83
15444;BME280;7822;48.146;11.576;2023-01-31T00:29:39;95748.09;;;14.12;58.87
15444;BME280;7822;48.146;11.576;2023-01-31T00:32:08;95744.66;;;14.11;58.90
15444;BME280;7822;48.146;11.576;2023-01-31T00:34:35;95741.22;;;14.11;59.05
15444;BME280;7822;48.146;11.576;2023-01-31T00:37:03;95737.66;;;14.12;59.02
15444;BME280;7822;48.146;11.576;2023-01-31T00:39:31;95740.28;;;14.12;59.11
15444;BME280;7822;48.146;11.576;2023-01-31T00:41:58;95737.66;;;14.12;58.82
15444;BME280;7822;48.146;11.576;2023-01-31T00:44:26;95747.28;;;14.11;59.01
15444;BME280;7822;48.146;11.576;2023-01-31T00:46:54;95736.84;;;14.11;58.57
15444;BME280;7822;48.146;11.576;2023-01-31T00:49:23;95738.59;;;14.11;58.90
15444;BME280;7822;48.146;11.576;2023-01-31T00:51:50;95733.25;;;14.12;58.93
15444;BME280;7822;48.146;11.576;2023-01-31T00:54:18;95730.63;;;14.12;59.01
15444;BME280;7822;48.146;11.576;2023-01-31T00:56:46;95739.44;;;14.11;58.77
15444;BME280;7822;48.146;11.576;2023-01-31T00:59:14;95741.22;;;14.11;58.68
15444;BME280;7822;48.146;11.576;2023-01-31T01:01:41;95739.44;;;14.11;59.13
15444;BME280;7822;48.146;11.576;2023-01-31T01:04:09;95738.47;;;14.12;59.11
15444;BME280;7822;48.146;11.576;2023-01-31T01:06:39;95727.22;;;14.12;58.76
15444;BME280;7822;48.146;11.576;2023-01-31T01:09:07;95722.00;;;14.12;58.89
15444;BME280;7822;48.146;11.576;2023-01-31T01:11:34;95725.56;;;14.11;58.91
15444;BME280;7822;48.146;11.576;2023-01-31T01:14:03;95729.13;;;14.10;58.82
15444;BME280;7822;48.146;11.576;2023-01-31T01:16:32;95737.78;;;14.10;59.07
15444;BME280;7822;48.146;11.576;2023-01-31T01:19:03;95739.56;;;14.10;59.26
15444;BME280;7822;48.146;11.576;2023-01-31T01:21:32;95740.38;;;14.10;59.11
15444;BME280;7822;48.146;11.576;2023-01-31T01:24:11;95736.84;;;14.11;59.23
15444;BME280;7822;48.146;11.576;2023-01-31T01:26:39;95747.38;;;14.10;59.16
15444;BME280;7822;48.146;11.576;2023-01-31T01:29:08;95743.97;;;14.09;59.05
15444;BME280;7822;48.146;11.576;2023-01-31T01:31:36;95753.44;;;14.10;59.08
15444;BME280;7822;48.146;11.576;2023-01-31T01:34:06;95750.00;;;14.10;58.89
15444;BME280;7822;48.146;11.576;2023-01-31T01:36:35;95743.97;;;14.09;59.15
15444;BME280;7822;48.146;11.576;2023-01-31T01:39:06;95744.78;;;14.10;59.08
15444;BME280;7822;48.146;11.576;2023-01-31T01:41:37;95747.53;;;14.08;58.99
15444;BME280;7822;48.146;11.576;2023-01-31T01:47:13;95759.72;;;14.08;59.21
15444;BME280;7822;48.146;11.576;2023-01-31T01:49:41;95759.88;;;14.06;59.06
15444;BME280;7822;48.146;11.576;2023-01-31T01:52:10;95769.38;;;14.07;59.29
15444;BME280;7822;48.146;11.576;2023-01-31T01:54:43;95778.81;;;14.08;59.04
15444;BME280;7822;48.146;11.576;2023-01-31T01:57:17;95771.97;;;14.07;59.00
15444;BME280;7822;48.146;11.576;2023-01-31T01:59:49;95767.56;;;14.08;59.12
15444;BME280;7822;48.146;11.576;2023-01-31T02:02:20;95771.97;;;14.07;58.91
15444;BME280;7822;48.146;11.576;2023-01-31T02:04:48;95766.75;;;14.07;58.93
15444;BME280;7822;48.146;11.576;2023-01-31T02:07:18;95778.13;;;14.06;59.12
15444;BME280;7822;48.146;11.576;2023-01-31T02:09:51;95781.56;;;14.07;59.11
15444;BME280;7822;48.146;11.576;2023-01-31T02:12:22;95782.41;;;14.07;58.95
15444;BME280;7822;48.146;11.576;2023-01-31T02:14:51;95784.19;;;14.07;59.16
15444;BME280;7822;48.146;11.576;2023-01-31T02:17:19;95785.00;;;14.07;59.09
15444;BME280;7822;48.146;11.576;2023-01-31T02:19:57;95790.25;;;14.07;59.11
15444;BME280;7822;48.146;11.576;2023-01-31T02:22:31;95781.56;;;14.07;58.94
15444;BME280;7822;48.146;11.576;2023-01-31T02:28:39;95794.63;;;14.07;58.78
15444;BME280;7822;48.146;11.576;2023-01-31T02:34:13;95794.63;;;14.07;58.78
15444;BME280;7822;48.146;11.576;2023-01-31T02:36:54;95797.22;;;14.07;59.27
15444;BME280;7822;48.146;11.576;2023-01-31T02:39:30;95797.22;;;14.07;59.04
15444;BME280;7822;48.146;11.576;2023-01-31T02:42:10;95803.38;;;14.06;59.10
15444;BME280;7822;48.146;11.576;2023-01-31T02:44:48;95812.88;;;14.07;59.21
15444;BME280;7822;48.146;11.576;2023-01-31T02:47:34;95808.59;;;14.06;59.00
15444;BME280;7822;48.146;11.576;2023-01-31T02:50:12;95805.16;;;14.05;59.01
15444;BME280;7822;48.146;11.576;2023-01-31T02:52:45;95800.78;;;14.06;59.02
15444;BME280;7822;48.146;11.576;2023-01-31T02:55:18;95798.16;;;14.06;59.01
15444;BME280;7822;48.146;11.576;2023-01-31T02:58:06;95812.19;;;14.05;59.24
15444;BME280;7822;48.146;11.576;2023-01-31T03:00:37;95806.13;;;14.04;59.13
15444;BME280;7822;48.146;11.576;2023-01-31T03:03:07;95815.59;;;14.05;59.02
15444;BME280;7822;48.146;11.576;2023-01-31T03:05:36;95821.66;;;14.06;59.19
15444;BME280;7822;48.146;11.576;2023-01-31T03:08:05;95813.81;;;14.06;58.96
15444;BME280;7822;48.146;11.576;2023-01-31T03:10:48;95809.56;;;14.05;59.11
15444;BME280;7822;48.146;11.576;2023-01-31T03:13:30;95813.00;;;14.05;59.26
15444;BME280;7822;48.146;11.576;2023-01-31T03:16:08;95820.81;;;14.05;58.87
15444;BME280;7822;48.146;11.576;2023-01-31T03:19:02;95823.44;;;14.05;59.18
15444;BME280;7822;48.146;11.576;2023-01-31T03:21:43;95823.44;;;14.05;59.29
15444;BME280;7822;48.146;11.576;2023-01-31T03:24:14;95820.00;;;14.05;59.41
15444;BME280;7822;48.146;11.576;2023-01-31T03:26:44;95830.44;;;14.05;59.48
15444;BME280;7822;48.146;11.576;2023-01-31T03:29:14;95826.03;;;14.05;59.24
15444;BME280;7822;48.146;11.576;2023-01-31T03:31:46;95832.09;;;14.06;59.05
15444;BME280;7822;48.146;11.576;2023-01-31T03:34:16;95826.88;;;14.06;59.23
15444;BME280;7822;48.146;11.576;2023-01-31T03:36:50;95826.03;;;14.05;59.21
15444;BME280;7822;48.146;11.576;2023-01-31T03:39:28;95834.69;;;14.06;59.22
15444;BME280;7822;48.146;11.576;2023-01-31T03:42:02;95836.47;;;14.05;59.29
15444;BME280;7822;48.146;11.576;2023-01-31T03:44:39;95834.84;;;14.04;59.20
15444;BME280;7822;48.146;11.576;2023-01-31T03:47:13;95830.44;;;14.05;59.16
15444;BME280;7822;48.146;11.576;2023-01-31T03:49:44;95840.06;;;14.04;59.13
15444;BME280;7822;48.146;11.576;2023-01-31T03:52:17;95849.50;;;14.05;59.15
15444;BME280;7822;48.146;11.576;2023-01-31T03:54:52;95855.69;;;14.04;59.21
15444;BME280;7822;48.146;11.576;2023-01-31T03:57:23;95850.34;;;14.06;59.28
15444;BME280;7822;48.146;11.576;2023-01-31T03:59:54;95845.25;;;14.04;59.23
15444;BME280;7822;48.146;11.576;2023-01-31T04:02:29;95849.50;;;14.05;59.26
15444;BME280;7822;48.146;11.576;2023-01-31T04:05:03;95854.72;;;14.05;59.12
15444;BME280;7822;48.146;11.576;2023-01-31T04:07:34;95851.44;;;14.03;59.24
15444;BME280;7822;48.146;11.576;2023-01-31T04:10:04;95857.47;;;14.04;59.31
15444;BME280;7822;48.146;11.576;2023-01-31T04:12:35;95855.69;;;14.04;59.28
15444;BME280;7822;48.146;11.576;2023-01-31T04:15:03;95860.09;;;14.04;59.11
15444;BME280;7822;48.146;11.576;2023-01-31T04:17:31;95872.19;;;14.05;59.12
15444;BME280;7822;48.146;11.576;2023-01-31T04:19:59;95868.75;;;14.04;59.29
15444;BME280;7822;48.146;11.576;2023-01-31T04:22:27;95871.34;;;14.04;58.91
15444;BME280;7822;48.146;11.576;2023-01-31T04:24:56;95874.91;;;14.03;59.24
15444;BME280;7822;48.146;11.576;2023-01-31T04:27:24;95874.78;;;14.05;59.43
15444;BME280;7822;48.146;11.576;2023-01-31T04:29:51;95883.56;;;14.04;59.35
15444;BME280;7822;48.146;11.576;2023-01-31T04:32:19;95872.19;;;14.05;59.47
15444;BME280;7822;48.146;11.576;2023-01-31T04:34:47;95877.50;;;14.03;59.39
15444;BME280;7822;48.146;11.576;2023-01-31T04:37:14;95877.50;;;14.03;59.05
15444;BME280;7822;48.146;11.576;2023-01-31T04:39:42;95864.47;;;14.03;59.28
15444;BME280;7822;48.146;11.576;2023-01-31T04:42:11;95887.94;;;14.03;59.26
15444;BME280;7822;48.146;11.576;2023-01-31T04:44:39;95884.41;;;14.04;59.38
15444;BME280;7822;48.146;11.576;2023-01-31T04:47:06;95883.56;;;14.04;59.21
15444;BME280;7822;48.146;11.576;2023-01-31T04:49:34;95890.44;;;14.05;59.33
15444;BME280;7822;48.146;11.576;2023-01-31T04:52:02;95895.66;;;14.05;59.27
15444;BME280;7822;48.146;11.576;2023-01-31T04:54:29;95890.44;;;14.05;59.30
15444;BME280;7822;48.146;11.576;2023-01-31T04:56:59;95894.84;;;14.04;59.26
15444;BME280;7822;48.146;11.576;2023-01-31T04:59:28;95900.06;;;14.04;59.15
15444;BME280;7822;48.146;11.576;2023-01-31T05:01:56;95896.47;;;14.05;59.31
15444;BME280;7822;48.146;11.576;2023-01-31T05:04:23;95902.66;;;14.04;59.37
15444;BME280;7822;48.146;11.576;2023-01-31T05:06:51;95910.34;;;14.06;59.33
15444;BME280;7822;48.146;11.576;2023-01-31T05:09:19;95905.13;;;14.06;59.29
15444;BME280;7822;48.146;11.576;2023-01-31T05:11:48;95915.47;;;14.07;59.26
15444;BME280;7822;48.146;11.576;2023-01-31T05:14:16;95906.66;;;14.08;59.04
15444;BME280;7822;48.146;11.576;2023-01-31T05:16:47;95908.34;;;14.09;59.02
15444;BME280;7822;48.146;11.576;2023-01-31T05:19:15;95904.75;;;14.10;59.46
15444;BME280;7822;48.146;11.576;2023-01-31T05:21:43;95917.78;;;14.10;59.10
15444;BME280;7822;48.146;11.576;2023-01-31T05:24:26;95915.19;;;14.10;59.25
15444;BME280;7822;48.146;11.576;2023-01-31T05:26:55;95930.00;;;14.10;59.20
15444;BME280;7822;48.146;11.576;2023-01-31T05:29:24;95926.47;;;14.11;59.15
15444;BME280;7822;48.146;11.576;2023-01-31T05:31:56;95931.69;;;14.11;59.06
15444;BME280;7822;48.146;11.576;2023-01-31T05:34:24;95930.84;;;14.10;59.26
15444;BME280;7822;48.146;11.576;2023-01-31T05:36:54;95935.22;;;14.10;58.72
15444;BME280;7822;48.146;11.576;2023-01-31T05:39:22;95931.69;;;14.11;59.27
15444;BME280;7822;48.146;11.576;2023-01-31T05:41:49;95937.72;;;14.11;59.44
15444;BME280;7822;48.146;11.576;2023-01-31T05:44:18;95927.28;;;14.11;59.29
15444;BME280;7822;48.146;11.576;2023-01-31T05:46:46;95928.13;;;14.12;59.18
15444;BME280;7822;48.146;11.576;2023-01-31T05:49:15;95931.53;;;14.12;59.39
15444;BME280;7822;48.146;11.576;2023-01-31T05:51:43;95929.91;;;14.11;59.01
15444;BME280;7822;48.146;11.576;2023-01-31T05:54:11;95933.34;;;14.12;59.18
15444;BME280;7822;48.146;11.576;2023-01-31T05:56:39;95935.97;;;14.12;59.18
15444;BME280;7822;48.146;11.576;2023-01-31T05:59:06;95941.19;;;14.12;59.17
15444;BME280;7822;48.146;11.576;2023-01-31T06:01:34;95945.41;;;14.13;59.18
15444;BME280;7822;48.146;11.576;2023-01-31T06:04:02;95946.25;;;14.13;59.37
15444;BME280;7822;48.146;11.576;2023-01-31T06:06:31;95946.25;;;14.13;59.43
15444;BME280;7822;48.146;11.576;2023-01-31T06:08:58;95934.16;;;14.12;59.54
15444;BME280;7822;48.146;11.576;2023-01-31T06:11:26;95934.16;;;14.12;59.03
15444;BME280;7822;48.146;11.576;2023-01-31T06:13:54;95931.53;;;14.12;59.27
15444;BME280;7822;48.146;11.576;2023-01-31T06:16:24;95926.22;;;14.14;59.14
15444;BME280;7822;48.146;11.576;2023-01-31T06:18:51;95932.38;;;14.13;59.25
15444;BME280;7822;48.146;11.576;2023-01-31T06:21:21;95935.69;;;14.15;59.25
15444;BME280;7822;48.146;11.576;2023-01-31T06:23:50;95934.84;;;14.14;59.24
15444;BME280;7822;48.146;11.576;2023-01-31T06:26:18;95929.63;;;14.14;59.42
15444;BME280;7822;48.146;11.576;2023-01-31T06:28:45;95922.63;;;14.15;59.24
15444;BME280;7822;48.146;11.576;2023-01-31T06:31:13;95925.25;;;14.15;59.25
15444;BME280;7822;48.146;11.576;2023-01-31T06:33:41;95925.25;;;14.15;59.34
15444;BME280;7822;48.146;11.576;2023-01-31T06:36:13;95927.03;;;14.14;59.05
15444;BME280;7822;48.146;11.576;2023-01-31T06:38:47;95928.81;;;14.14;58.99
15444;BME280;7822;48.146;11.576;2023-01-31T06:41:17;95944.34;;;14.16;59.43
15444;BME280;7822;48.146;11.576;2023-01-31T06:43:45;95945.19;;;14.16;59.28
15444;BME280;7822;48.146;11.576;2023-01-31T06:46:13;95948.72;;;14.15;59.18
15444;BME280;7822;48.146;11.576;2023-01-31T06:48:40;95946.94;;;14.16;59.27
15444;BME280;7822;48.146;11.576;2023-01-31T06:51:09;95947.91;;;14.14;59.02
15444;BME280;7822;48.146;11.576;2023-01-31T06:53:36;95947.91;;;14.14;59.23
15444;BME280;7822;48.146;11.576;2023-01-31T06:56:05;95948.72;;;14.15;59.06
15444;BME280;7822;48.146;11.576;2023-01-31T06:58:34;95949.69;;;14.14;59.35
15444;BME280;7822;48.146;11.576;2023-01-31T07:01:05;95957.53;;;14.14;59.04
15444;BME280;7822;48.146;11.576;2023-01-31T07:03:33;95958.34;;;14.14;59.52
15444;BME280;7822;48.146;11.576;2023-01-31T07:06:01;95968.78;;;14.14;59.29
15444;BME280;7822;48.146;11.576;2023-01-31T07:08:29;95967.00;;;14.15;59.46
15444;BME280;7822;48.146;11.576;2023-01-31T07:11:01;95978.41;;;14.14;59.42
15444;BME280;7822;48.146;11.576;2023-01-31T07:13:29;95969.75;;;14.13;59.55
15444;BME280;7822;48.146;11.576;2023-01-31T07:15:59;95972.34;;;14.13;59.45
15444;BME280;7822;48.146;11.576;2023-01-31T07:18:27;95966.44;;;14.11;59.49
15444;BME280;7822;48.146;11.576;2023-01-31T07:20:55;95968.91;;;14.13;59.32
15444;BME280;7822;48.146;11.576;2023-01-31T07:23:23;95972.34;;;14.13;59.21
15444;BME280;7822;48.146;11.576;2023-01-31T07:25:50;95969.88;;;14.12;59.29
15444;BME280;7822;48.146;11.576;2023-01-31T07:28:18;95972.47;;;14.12;59.67
15444;BME280;7822;48.146;11.576;2023-01-31T07:30:46;95969.03;;;14.11;59.47
15444;BME280;7822;48.146;11.576;2023-01-31T07:33:15;95971.66;;;14.11;59.41
15444;BME280;7822;48.146;11.576;2023-01-31T07:35:43;95969.88;;;14.12;59.61
15444;BME280;7822;48.146;11.576;2023-01-31T07:38:10;95965.59;;;14.11;59.16
15444;BME280;7822;48.146;11.576;2023-01-31T07:40:38;95957.75;;;14.11;59.42
15444;BME280;7822;48.146;11.576;2023-01-31T07:43:06;95962.16;;;14.10;59.35
15444;BME280;7822;48.146;11.576;2023-01-31T07:45:34;95965.59;;;14.11;59.59
15444;BME280;7822;48.146;11.576;2023-01-31T07:48:02;95961.22;;;14.11;59.71
15444;BME280;7822;48.146;11.576;2023-01-31T07:50:32;95967.38;;;14.10;59.30
15444;BME280;7822;48.146;11.576;2023-01-31T07:53:00;95961.31;;;14.10;59.23
15444;BME280;7822;48.146;11.576;2023-01-31T07:55:28;95967.38;;;14.10;59.19
15444;BME280;7822;48.146;11.576;2023-01-31T07:57:56;95974.25;;;14.11;59.38
15444;BME280;7822;48.146;11.576;2023-01-31T08:00:24;95966.44;;;14.11;59.40
15444;BME280;7822;48.146;11.576;2023-01-31T08:03:22;95977.81;;;14.10;59.47
15444;BME280;7822;48.146;11.576;2023-01-31T08:06:02;95979.56;;;14.10;59.11
15444;BME280;7822;48.146;11.576;2023-01-31T08:08:30;95976.03;;;14.11;59.55
15444;BME280;7822;48.146;11.576;2023-01-31T08:10:58;95973.41;;;14.11;59.49
15444;BME280;7822;48.146;11.576;2023-01-31T08:13:26;95964.75;;;14.10;59.55
15444;BME280;7822;48.146;11.576;2023-01-31T08:15:53;95962.16;;;14.10;59.66
15444;BME280;7822;48.146;11.576;2023-01-31T08:18:21;95957.75;;;14.11;59.34
15444;BME280;7822;48.146;11.576;2023-01-31T08:20:49;95958.72;;;14.10;59.42
15444;BME280;7822;48.146;11.576;2023-01-31T08:23:18;95966.53;;;14.10;59.42
15444;BME280;7822;48.146;11.576;2023-01-31T08:25:45;95967.38;;;14.10;59.45
15444;BME280;7822;48.146;11.576;2023-01-31T08:28:13;95969.16;;;14.10;59.62
15444;BME280;7822;48.146;11.576;2023-01-31T08:30:42;95970.94;;;14.09;59.58
15444;BME280;7822;48.146;11.576;2023-01-31T08:33:21;95969.97;;;14.10;59.54
15444;BME280;7822;48.146;11.576;2023-01-31T08:35:49;95969.97;;;14.10;59.52
15444;BME280;7822;48.146;11.576;2023-01-31T08:38:18;95970.94;;;14.09;59.63
15444;BME280;7822;48.146;11.576;2023-01-31T08:40:46;95973.41;;;14.11;59.42
15444;BME280;7822;48.146;11.576;2023-01-31T08:43:14;95969.16;;;14.10;59.50
15444;BME280;7822;48.146;11.576;2023-01-31T08:45:41;95975.19;;;14.10;59.22
15444;BME280;7822;48.146;11.576;2023-01-31T08:48:09;95966.53;;;14.10;59.35
15444;BME280;7822;48.146;11.576;2023-01-31T08:50:37;95969.16;;;14.10;59.73
15444;BME280;7822;48.146;11.576;2023-01-31T08:53:06;95985.63;;;14.10;59.85
15444;BME280;7822;48.146;11.576;2023-01-31T08:55:35;95976.97;;;14.10;59.56
15444;BME280;7822;48.146;11.576;2023-01-31T08:58:03;95969.16;;;14.10;59.67
15444;BME280;7822;48.146;11.576;2023-01-31T09:00:31;95980.56;;;14.09;59.78
15444;BME280;7822;48.146;11.576;2023-01-31T09:02:59;95974.34;;;14.10;59.28
15444;BME280;7822;48.146;11.576;2023-01-31T09:05:28;95971.75;;;14.10;59.54
15444;BME280;7822;48.146;11.576;2023-01-31T09:07:56;95976.03;;;14.11;59.58
15444;BME280;7822;48.146;11.576;2023-01-31T09:10:24;95977.81;;;14.10;59.77
15444;BME280;7822;48.146;11.576;2023-01-31T09:12:53;95966.44;;;14.11;59.54
15444;BME280;7822;48.146;11.576;2023-01-31T09:15:20;95968.19;;;14.11;59.47
15444;BME280;7822;48.146;11.576;2023-01-31T09:17:49;95969.97;;;14.10;59.62
15444;BME280;7822;48.146;11.576;2023-01-31T09:20:17;95964.75;;;14.10;59.67
15444;BME280;7822;48.146;11.576;2023-01-31T09:22:44;95965.59;;;14.11;59.48
15444;BME280;7822;48.146;11.576;2023-01-31T09:25:12;95971.75;;;14.10;59.55
15444;BME280;7822;48.146;11.576;2023-01-31T09:27:40;95963.13;;;14.09;59.88
15444;BME280;7822;48.146;11.576;2023-01-31T09:30:10;95971.75;;;14.10;59.67
15444;BME280;7822;48.146;11.576;2023-01-31T09:32:38;95966.44;;;14.11;59.37
15444;BME280;7822;48.146;11.576;2023-01-31T09:35:07;95976.16;;;14.09;59.71
15444;BME280;7822;48.146;11.576;2023-01-31T09:37:35;95969.97;;;14.10;59.51
15444;BME280;7822;48.146;11.576;2023-01-31T09:40:03;95976.16;;;14.09;59.31
15444;BME280;7822;48.146;11.576;2023-01-31T09:42:35;95986.47;;;14.11;59.60
15444;BME280;7822;48.146;11.576;2023-01-31T09:45:06;95988.25;;;14.10;59.50
15444;BME280;7822;48.146;11.576;2023-01-31T09:47:44;95995.22;;;14.10;59.59
15444;BME280;7822;48.146;11.576;2023-01-31T09:50:17;95991.69;;;14.11;59.46
15444;BME280;7822;48.146;11.576;2023-01-31T09:52:47;95986.47;;;14.11;59.48
15444;BME280;7822;48.146;11.576;2023-01-31T09:55:17;95989.91;;;14.11;59.58
15444;BME280;7822;48.146;11.576;2023-01-31T09:57:50;95996.91;;;14.11;59.63
15444;BME280;7822;48.146;11.576;2023-01-31T10:00:23;95985.63;;;14.10;59.58
15444;BME280;7822;48.146;11.576;2023-01-31T10:03:26;95994.28;;;14.11;59.50
15444;BME280;7822;48.146;11.576;2023-01-31T10:06:02;95995.13;;;14.11;59.86
15444;BME280;7822;48.146;11.576;2023-01-31T10:08:40;95992.63;;;14.10;59.67
15444;BME280;7822;48.146;11.576;2023-01-31T10:11:17;95982.91;;;14.12;59.77
15444;BME280;7822;48.146;11.576;2023-01-31T10:13:50;95985.63;;;14.10;59.62
15444;BME280;7822;48.146;11.576;2023-01-31T10:16:23;95993.47;;;14.10;59.53
15444;BME280;7822;48.146;11.576;2023-01-31T10:18:58;95979.47;;;14.11;59.42
15444;BME280;7822;48.146;11.576;2023-01-31T10:21:30;95964.66;;;14.12;59.62
15444;BME280;7822;48.146;11.576;2023-01-31T10:24:02;95958.59;;;14.11;59.52
15444;BME280;7822;48.146;11.576;2023-01-31T10:26:33;95948.16;;;14.11;59.38
15444;BME280;7822;48.146;11.576;2023-01-31T10:29:09;95944.59;;;14.12;59.46
15444;BME280;7822;48.146;11.576;2023-01-31T10:31:41;95946.41;;;14.12;59.58
15444;BME280;7822;48.146;11.576;2023-01-31T10:34:14;95955.16;;;14.11;59.53
15444;BME280;7822;48.146;11.576;2023-01-31T10:36:48;95947.34;;;14.11;59.40
15444;BME280;7822;48.146;11.576;2023-01-31T10:39:20;95941.28;;;14.10;59.34
15444;BME280;7822;48.146;11.576;2023-01-31T10:42:07;95936.91;;;14.11;59.82
15444;BME280;7822;48.146;11.576;2023-01-31T10:44:49;95937.72;;;14.11;59.41
15444;BME280;7822;48.146;11.576;2023-01-31T10:47:20;95935.13;;;14.11;59.59
15444;BME280;7822;48.146;11.576;2023-01-31T10:49:50;95936.06;;;14.10;59.37
15444;BME280;7822;48.146;11.576;2023-01-31T10:52:31;95932.50;;;14.11;59.51
15444;BME280;7822;48.146;11.576;2023-01-31T10:55:21;95942.13;;;14.11;59.58
15444;BME280;7822;48.146;11.576;2023-01-31T10:57:54;95936.91;;;14.11;59.45
15444;BME280;7822;48.146;11.576;2023-01-31T11:00:25;95928.22;;;14.10;59.58
15444;BME280;7822;48.146;11.576;2023-01-31T11:02:54;95923.00;;;14.10;59.42
15444;BME280;7822;48.146;11.576;2023-01-31T11:05:25;95919.47;;;14.11;59.56
15444;BME280;7822;48.146;11.576;2023-01-31T11:07:54;95921.25;;;14.11;59.71
15444;BME280;7822;48.146;11.576;2023-01-31T11:10:24;95916.03;;;14.11;59.77
15444;BME280;7822;48.146;11.576;2023-01-31T11:12:54;95911.63;;;14.11;59.91
15444;BME280;7822;48.146;11.576;2023-01-31T11:15:25;95910.66;;;14.12;59.68
15444;BME280;7822;48.146;11.576;2023-01-31T11:17:57;95892.53;;;14.11;59.66
15444;BME280;7822;48.146;11.576;2023-01-31T11:20:29;95890.78;;;14.11;59.57
15444;BME280;7822;48.146;11.576;2023-01-31T11:22:59;95881.97;;;14.12;59.61
15444;BME280;7822;48.146;11.576;2023-01-31T11:25:29;95876.75;;;14.12;59.59
15444;BME280;7822;48.146;11.576;2023-01-31T11:27:59;95877.72;;;14.11;59.45
15444;BME280;7822;48.146;11.576;2023-01-31T11:30:30;95870.72;;;14.12;59.67
15444;BME280;7822;48.146;11.576;2023-01-31T11:33:00;95867.28;;;14.11;59.53
15444;BME280;7822;48.146;11.576;2023-01-31T11:35:31;95863.84;;;14.11;59.53
15444;BME280;7822;48.146;11.576;2023-01-31T11:38:01;95853.41;;;14.11;59.62
15444;BME280;7822;48.146;11.576;2023-01-31T11:40:31;95849.97;;;14.10;59.62
15444;BME280;7822;48.146;11.576;2023-01-31T11:43:00;95836.09;;;14.10;59.46
15444;BME280;7822;48.146;11.576;2023-01-31T11:45:29;95840.34;;;14.11;59.29
15444;BME280;7822;48.146;11.576;2023-01-31T11:48:04;95825.53;;;14.11;59.62
15444;BME280;7822;48.146;11.576;2023-01-31T11:50:37;95831.69;;;14.10;59.50
15444;BME280;7822;48.146;11.576;2023-01-31T11:53:14;95829.94;;;14.11;59.57
15444;BME280;7822;48.146;11.576;2023-01-31T11:55:43;95831.59;;;14.12;59.57
15444;BME280;7822;48.146;11.576;2023-01-31T11:58:16;95814.28;;;14.11;59.30
15444;BME280;7822;48.146;11.576;2023-01-31T12:00:54;95816.88;;;14.11;59.71
15444;BME280;7822;48.146;11.576;2023-01-31T12:03:23;95811.66;;;14.11;59.67
15444;BME280;7822;48.146;11.576;2023-01-31T12:06:00;95804.66;;;14.11;59.60
15444;BME280;7822;48.146;11.576;2023-01-31T12:08:30;95789.00;;;14.11;59.54
15444;BME280;7822;48.146;11.576;2023-01-31T12:11:03;95797.69;;;14.12;59.45
15444;BME280;7822;48.146;11.576;2023-01-31T12:13:45;95781.03;;;14.13;59.30
15444;BME280;7822;48.146;11.576;2023-01-31T12:16:13;95788.72;;;14.14;59.22
15444;BME280;7822;48.146;11.576;2023-01-31T12:18:51;95775.81;;;14.13;59.25
15444;BME280;7822;48.146;11.576;2023-01-31T12:21:35;95777.59;;;14.12;59.85
15444;BME280;7822;48.146;11.576;2023-01-31T12:24:13;95781.88;;;14.13;59.53
15444;BME280;7822;48.146;11.576;2023-01-31T12:26:47;95780.91;;;14.14;59.55
15444;BME280;7822;48.146;11.576;2023-01-31T12:29:37;95784.50;;;14.13;59.31
15444;BME280;7822;48.146;11.576;2023-01-31T12:32:23;95792.31;;;14.13;59.58
15444;BME280;7822;48.146;11.576;2023-01-31T12:35:16;95796.56;;;14.14;59.25
15444;BME280;7822;48.146;11.576;2023-01-31T12:37:57;95795.75;;;14.14;59.65
15444;BME280;7822;48.146;11.576;2023-01-31T12:40:36;95775.69;;;14.14;59.79
15444;BME280;7822;48.146;11.576;2023-01-31T12:43:19;95773.91;;;14.15;59.60
15444;BME280;7822;48.146;11.576;2023-01-31T12:45:59;95765.25;;;14.14;59.45
15444;BME280;7822;48.146;11.576;2023-01-31T12:48:44;95759.09;;;14.16;59.63
15444;BME280;7822;48.146;11.576;2023-01-31T12:51:21;95759.09;;;14.16;59.62
15444;BME280;7822;48.146;11.576;2023-01-31T12:54:05;95760.88;;;14.15;59.79
15444;BME280;7822;48.146;11.576;2023-01-31T12:56:44;95758.25;;;14.15;59.53
15444;BME280;7822;48.146;11.576;2023-01-31T12:59:33;95771.31;;;14.15;59.58
15444;BME280;7822;48.146;11.576;2023-01-31T13:02:16;95775.56;;;14.16;59.57
15444;BME280;7822;48.146;11.576;2023-01-31T13:04:51;95777.34;;;14.16;59.56
15444;BME280;7822;48.146;11.576;2023-01-31T13:07:27;95781.59;;;14.17;59.41
15444;BME280;7822;48.146;11.576;2023-01-31T13:10:02;95766.78;;;14.17;59.69
15444;BME280;7822;48.146;11.576;2023-01-31T13:12:32;95755.41;;;14.18;59.58
15444;BME280;7822;48.146;11.576;2023-01-31T13:15:04;95747.56;;;14.18;59.50
15444;BME280;7822;48.146;11.576;2023-01-31T13:17:37;95741.38;;;14.19;59.79
15444;BME280;7822;48.146;11.576;2023-01-31T13:20:21;95743.19;;;14.19;59.46
15444;BME280;7822;48.146;11.576;2023-01-31T13:22:52;95738.75;;;14.19;59.59
15444;BME280;7822;48.146;11.576;2023-01-31T13:25:29;95743.19;;;14.19;59.60
15444;BME280;7822;48.146;11.576;2023-01-31T13:28:05;95744.97;;;14.18;59.46
15444;BME280;7822;48.146;11.576;2023-01-31T13:30:36;95738.75;;;14.19;59.73